Time;durP1;ratioP1;P1;durP2;ratioP2;P2;SDS_P1;SDS_P2;PMS_P1;PMS_P2;Temp;Humidity;BMP_temperature;BMP_pressure;BME280_temperature;BME280_humidity;BME280_pressure;Samples;Min_cycle;Max_cycle;Signal;HPM_P1;HPM_P2
2021/12/09 00:00:16;;;;;;;15.83;7.00;;;;;;;1.15;84.27;100128.84;5051753;28;20028;-83
2021/12/09 00:02:42;;;;;;;16.20;7.20;;;;;;;1.16;84.58;100130.56;5052320;28;20089;-83
2021/12/09 00:05:12;;;;;;;14.03;6.80;;;;;;;1.15;84.43;100122.88;5052225;28;20127;-82
2021/12/09 00:07:38;;;;;;;15.30;6.80;;;;;;;1.15;84.87;100128.84;5054343;28;20059;-83
2021/12/09 00:10:07;;;;;;;18.73;7.43;;;;;;;1.12;84.42;100125.44;5052833;28;20058;-83
2021/12/09 00:12:32;;;;;;;16.13;7.07;;;;;;;1.12;84.48;100133.97;5053729;28;20041;-83
2021/12/09 00:14:58;;;;;;;12.43;6.40;;;;;;;1.11;84.56;100127.13;5053006;28;20040;-82
2021/12/09 00:17:24;;;;;;;12.13;6.70;;;;;;;1.10;84.52;100124.56;5052416;28;20104;-82
2021/12/09 00:19:49;;;;;;;14.70;6.70;;;;;;;1.10;84.54;100119.44;5052543;28;20136;-82
2021/12/09 00:22:14;;;;;;;14.73;6.50;;;;;;;1.09;84.19;100116.06;5052303;28;20501;-83
2021/12/09 00:24:41;;;;;;;12.97;6.20;;;;;;;1.09;84.46;100123.72;5052881;28;20031;-83
2021/12/09 00:27:06;;;;;;;14.80;6.60;;;;;;;1.08;84.65;100116.91;5052461;28;20391;-83
2021/12/09 00:29:31;;;;;;;16.03;6.73;;;;;;;1.07;84.57;100117.75;5054521;28;20029;-83
2021/12/09 00:31:57;;;;;;;13.47;6.33;;;;;;;1.06;84.39;100122.00;5051001;28;20035;-83
2021/12/09 00:34:30;;;;;;;16.70;6.87;;;;;;;1.09;84.51;100115.19;5052408;28;20082;-82
2021/12/09 00:37:01;;;;;;;15.93;6.47;;;;;;;1.07;84.74;100125.44;5034464;28;20419;-83
2021/12/09 00:39:27;;;;;;;13.82;6.10;;;;;;;1.06;84.82;100128.84;5037000;28;20048;-83
2021/12/09 00:41:52;;;;;;;14.17;6.63;;;;;;;1.05;84.86;100127.97;5051803;28;20391;-83
2021/12/09 00:44:18;;;;;;;14.93;6.47;;;;;;;1.04;84.41;100130.56;5053884;28;20056;-83
2021/12/09 00:46:43;;;;;;;12.67;6.20;;;;;;;1.02;84.64;100127.13;5052750;28;20025;-82
2021/12/09 00:49:09;;;;;;;13.57;6.43;;;;;;;1.02;84.74;100127.13;5054840;28;20074;-83
2021/12/09 00:51:35;;;;;;;13.20;6.50;;;;;;;1.01;84.64;100126.28;5051992;28;20025;-83
2021/12/09 00:54:00;;;;;;;15.17;6.50;;;;;;;1.02;84.53;100129.69;5052563;28;20043;-82
2021/12/09 00:56:26;;;;;;;12.10;6.50;;;;;;;1.01;84.57;100130.53;5052381;28;20103;-82
2021/12/09 00:58:53;;;;;;;13.20;6.40;;;;;;;0.98;85.02;100126.28;5050977;28;20032;-82
2021/12/09 01:01:19;;;;;;;14.90;6.27;;;;;;;0.98;84.79;100126.28;5032985;28;20033;-83
2021/12/09 01:03:45;;;;;;;13.67;6.30;;;;;;;0.97;85.04;100131.38;5051753;28;20036;-83
2021/12/09 01:06:10;;;;;;;14.33;6.57;;;;;;;0.97;84.63;100139.94;5051659;28;20028;-83
2021/12/09 01:08:37;;;;;;;16.00;6.53;;;;;;;0.96;84.83;100137.34;5053105;28;20503;-83
2021/12/09 01:11:04;;;;;;;14.87;6.17;;;;;;;0.96;84.99;100138.22;5051675;28;20108;-83
2021/12/09 01:13:30;;;;;;;14.73;6.60;;;;;;;0.96;84.95;100133.09;5051800;28;20025;-82
2021/12/09 01:15:56;;;;;;;13.13;6.20;;;;;;;0.96;84.73;100133.09;5052803;28;20028;-83
2021/12/09 01:18:21;;;;;;;14.10;6.80;;;;;;;0.96;84.90;100140.78;5050972;28;20020;-83
2021/12/09 01:20:47;;;;;;;19.83;7.07;;;;;;;0.98;84.80;100153.56;5029954;28;20043;-83
2021/12/09 01:23:12;;;;;;;14.30;6.37;;;;;;;0.97;84.99;100139.94;5051375;28;20087;-83
2021/12/09 01:25:38;;;;;;;15.37;6.47;;;;;;;0.96;84.84;100143.34;5051319;28;20028;-83
2021/12/09 01:28:06;;;;;;;12.60;6.43;;;;;;;0.97;85.05;100149.31;5053350;28;20017;-82
2021/12/09 01:30:32;;;;;;;14.93;6.50;;;;;;;0.96;85.25;100139.91;5029406;28;20064;-83
2021/12/09 01:32:58;;;;;;;15.47;6.73;;;;;;;0.96;85.23;100142.47;5051588;28;20139;-83
2021/12/09 01:35:30;;;;;;;15.10;6.40;;;;;;;0.95;84.89;100157.00;5051283;28;20021;-83
2021/12/09 01:37:59;;;;;;;16.15;6.93;;;;;;;0.95;85.10;100157.00;5050991;28;20029;-83
2021/12/09 01:40:27;;;;;;;15.07;6.63;;;;;;;0.95;85.11;100156.13;5033181;28;20365;-83
2021/12/09 01:42:53;;;;;;;15.57;6.83;;;;;;;0.93;85.18;100158.69;5050879;28;20079;-83
2021/12/09 01:45:19;;;;;;;17.47;7.00;;;;;;;0.93;85.03;100163.81;5051881;28;20057;-83
2021/12/09 01:47:44;;;;;;;14.93;6.67;;;;;;;0.90;85.02;100159.56;5050905;28;20029;-83
2021/12/09 01:50:10;;;;;;;13.70;6.70;;;;;;;0.90;85.09;100163.81;5052888;28;20028;-83
2021/12/09 01:52:37;;;;;;;14.53;6.57;;;;;;;0.88;85.08;100150.13;5050945;28;20475;-83
2021/12/09 01:55:04;;;;;;;12.93;6.70;;;;;;;0.87;85.13;100154.41;5050434;28;20357;-83
2021/12/09 01:57:30;;;;;;;13.23;6.60;;;;;;;0.89;85.02;100151.84;5050787;28;20036;-83
2021/12/09 01:59:55;;;;;;;18.20;7.27;;;;;;;0.86;84.95;100144.16;5051273;28;20025;-83
2021/12/09 02:02:20;;;;;;;12.83;6.13;;;;;;;0.87;85.16;100148.41;5050799;28;20448;-83
2021/12/09 02:04:46;;;;;;;13.97;6.60;;;;;;;0.86;84.71;100144.16;5050951;28;20055;-83
2021/12/09 02:07:12;;;;;;;14.27;6.13;;;;;;;0.84;84.84;100144.16;5050736;28;20078;-83
2021/12/09 02:09:38;;;;;;;14.63;6.70;;;;;;;0.84;85.15;100143.31;5047495;28;20466;-83
2021/12/09 02:12:04;;;;;;;15.93;6.27;;;;;;;0.83;84.90;100146.72;5052214;28;20020;-83
2021/12/09 02:14:30;;;;;;;12.67;5.97;;;;;;;0.81;85.09;100143.31;5050244;28;20033;-83
2021/12/09 02:16:56;;;;;;;14.97;6.13;;;;;;;0.81;85.48;100135.63;5050813;28;20039;-83
2021/12/09 02:19:21;;;;;;;13.57;6.17;;;;;;;0.80;85.11;100136.47;5050446;28;20506;-83
2021/12/09 02:21:47;;;;;;;13.77;6.50;;;;;;;0.79;85.16;100134.75;5048626;28;20372;-83
2021/12/09 02:24:15;;;;;;;16.43;6.27;;;;;;;0.77;85.03;100141.56;5050607;28;20025;-83
2021/12/09 02:26:49;;;;;;;13.50;6.50;;;;;;;0.77;84.87;100137.28;5050845;28;20040;-83
2021/12/09 02:29:16;;;;;;;17.10;6.90;;;;;;;0.75;85.17;100133.91;5050788;28;20452;-83
2021/12/09 02:31:43;;;;;;;18.90;7.23;;;;;;;0.74;85.37;100138.16;5050800;28;20032;-83
2021/12/09 02:34:10;;;;;;;14.87;6.93;;;;;;;0.73;85.43;100138.16;5049830;28;20035;-82
2021/12/09 02:36:39;;;;;;;13.03;6.60;;;;;;;0.72;85.02;100136.44;5050395;28;20111;-83
2021/12/09 02:39:08;;;;;;;15.87;6.87;;;;;;;0.71;85.40;100134.72;5049425;28;20028;-83
2021/12/09 02:41:35;;;;;;;13.30;6.87;;;;;;;0.70;85.18;100140.69;5049368;28;20064;-83
2021/12/09 02:44:04;;;;;;;16.00;6.80;;;;;;;0.69;85.48;100139.81;5051099;28;20055;-83
2021/12/09 02:46:36;;;;;;;14.47;6.63;;;;;;;0.68;85.55;100144.97;5048863;28;20025;-83
2021/12/09 02:49:06;;;;;;;15.47;6.40;;;;;;;0.67;85.44;100139.00;5050212;28;20112;-83
2021/12/09 02:51:31;;;;;;;13.53;6.73;;;;;;;0.67;85.09;100138.13;5051080;28;20039;-83
2021/12/09 02:53:56;;;;;;;15.00;6.37;;;;;;;0.68;85.24;100148.38;5050739;28;20041;-83
2021/12/09 02:56:22;;;;;;;15.07;6.20;;;;;;;0.66;85.13;100150.09;5050263;28;20035;-83
2021/12/09 02:58:47;;;;;;;16.90;6.73;;;;;;;0.64;85.67;100144.09;5054048;28;20473;-83
2021/12/09 03:01:29;;;;;;;12.13;5.83;;;;;;;0.66;85.66;100149.22;5031072;28;20433;-83
2021/12/09 03:03:59;;;;;;;15.65;6.22;;;;;;;0.66;85.34;100155.22;5050229;28;20107;-83
2021/12/09 03:06:37;;;;;;;13.87;6.10;;;;;;;0.65;85.49;100158.63;5050906;28;20115;-82
2021/12/09 03:09:08;;;;;;;13.50;5.70;;;;;;;0.63;85.34;100155.19;5050887;28;20079;-83
2021/12/09 03:11:33;;;;;;;12.40;5.47;;;;;;;0.63;85.52;100160.31;5050141;28;20017;-82
2021/12/09 03:13:59;;;;;;;13.80;5.70;;;;;;;0.61;85.41;100162.00;5051077;28;20025;-83
2021/12/09 03:16:25;;;;;;;15.47;5.90;;;;;;;0.60;85.26;100157.72;5050418;28;20032;-83
2021/12/09 03:18:56;;;;;;;16.57;6.27;;;;;;;0.61;85.47;100164.56;5062012;28;20029;-83
2021/12/09 03:21:35;;;;;;;16.45;5.70;;;;;;;0.65;85.90;100165.41;5049535;28;20033;-83
2021/12/09 03:24:02;;;;;;;12.60;5.17;;;;;;;0.61;85.43;100162.00;5050574;28;20028;-83
2021/12/09 03:26:32;;;;;;;13.57;5.93;;;;;;;0.61;85.65;100172.25;5051575;28;20525;-83
2021/12/09 03:29:00;;;;;;;13.87;5.63;;;;;;;0.60;85.29;100175.66;5052221;28;20064;-83
2021/12/09 03:31:26;;;;;;;12.13;5.33;;;;;;;0.59;85.53;100176.50;5051938;28;20040;-83
2021/12/09 03:33:51;;;;;;;12.83;5.57;;;;;;;0.59;85.51;100173.94;5052473;28;20043;-83
2021/12/09 03:36:17;;;;;;;12.50;5.30;;;;;;;0.58;85.47;100174.78;5055199;28;20036;-83
2021/12/09 03:38:42;;;;;;;16.07;5.90;;;;;;;0.57;85.19;100180.75;5058514;28;20047;-83
2021/12/09 03:41:08;;;;;;;11.23;5.40;;;;;;;0.55;85.49;100179.88;5057604;28;20515;-82
2021/12/09 03:43:33;;;;;;;14.27;5.37;;;;;;;0.54;85.43;100191.84;5053647;28;20045;-83
2021/12/09 03:45:59;;;;;;;12.93;5.03;;;;;;;0.54;85.35;100190.97;5054812;28;20036;-83
2021/12/09 03:48:27;;;;;;;14.30;5.77;;;;;;;0.53;85.47;100186.69;5053525;28;20056;-83
2021/12/09 03:50:53;;;;;;;10.77;5.20;;;;;;;0.52;85.04;100187.53;5053755;28;20498;-83
2021/12/09 03:53:19;;;;;;;13.13;4.97;;;;;;;0.53;85.65;100184.13;5040018;28;20053;-82
2021/12/09 03:55:45;;;;;;;10.90;4.97;;;;;;;0.53;85.15;100186.69;5059467;28;20102;-83
2021/12/09 03:58:11;;;;;;;14.97;5.23;;;;;;;0.51;85.43;100180.75;5053568;28;20167;-83
2021/12/09 04:00:36;;;;;;;12.03;4.90;;;;;;;0.51;85.75;100173.91;5053588;28;20107;-83
2021/12/09 04:03:02;;;;;;;13.20;4.80;;;;;;;0.52;85.66;100188.41;5052711;28;20029;-83
2021/12/09 04:05:28;;;;;;;15.33;5.30;;;;;;;0.52;85.47;100187.53;5054333;28;20035;-83
2021/12/09 04:07:53;;;;;;;10.80;4.50;;;;;;;0.52;85.63;100184.97;5037445;28;20024;-83
2021/12/09 04:10:19;;;;;;;13.20;5.20;;;;;;;0.52;85.81;100179.84;5054647;28;20053;-83
2021/12/09 04:12:45;;;;;;;14.17;5.43;;;;;;;0.49;85.66;100178.16;5053352;28;20032;-83
2021/12/09 04:15:11;;;;;;;10.03;4.70;;;;;;;0.49;85.17;100187.56;5053260;28;20464;-83
2021/12/09 04:17:37;;;;;;;10.73;4.70;;;;;;;0.49;85.42;100188.38;5052710;28;20423;-83
2021/12/09 04:20:06;;;;;;;12.27;4.53;;;;;;;0.47;85.18;100191.81;5055754;28;20044;-83
2021/12/09 04:22:31;;;;;;;11.47;4.90;;;;;;;0.47;85.04;100190.09;5052000;28;20033;-83
2021/12/09 04:24:57;;;;;;;13.57;4.90;;;;;;;0.48;85.48;100190.94;5035281;28;20468;-83
2021/12/09 04:27:23;;;;;;;12.87;4.70;;;;;;;0.46;85.35;100193.50;5058618;28;20039;-83
2021/12/09 04:29:48;;;;;;;11.40;4.70;;;;;;;0.44;85.27;100195.19;5052940;28;20079;-83
2021/12/09 04:32:14;;;;;;;9.97;4.63;;;;;;;0.44;85.79;100190.94;5053105;28;20395;-83
2021/12/09 04:34:39;;;;;;;15.10;5.40;;;;;;;0.45;85.71;100196.88;5053128;28;20040;-83
2021/12/09 04:37:05;;;;;;;10.80;4.40;;;;;;;0.45;85.37;100208.00;5052608;28;20029;-83
2021/12/09 04:39:30;;;;;;;12.73;4.60;;;;;;;0.42;85.22;100202.84;5051885;28;20142;-83
2021/12/09 04:41:56;;;;;;;13.20;5.03;;;;;;;0.42;85.39;100207.97;5052328;28;20037;-83
2021/12/09 04:44:22;;;;;;;12.70;4.60;;;;;;;0.42;85.52;100207.97;5051539;28;20063;-83
2021/12/09 04:46:48;;;;;;;9.70;4.07;;;;;;;0.42;85.25;100207.97;5051503;28;20040;-83
2021/12/09 04:49:14;;;;;;;13.13;4.30;;;;;;;0.42;85.71;100210.53;5055663;28;20138;-83
2021/12/09 04:51:39;;;;;;;15.47;4.60;;;;;;;0.41;85.52;100206.25;5036501;28;20472;-82
2021/12/09 04:54:06;;;;;;;9.60;4.20;;;;;;;0.40;85.80;100207.13;5052957;28;20029;-83
2021/12/09 04:56:33;;;;;;;12.30;4.13;;;;;;;0.40;85.39;100206.28;5051731;28;20040;-83
2021/12/09 04:58:58;;;;;;;12.20;4.37;;;;;;;0.41;85.60;100210.53;5052564;28;20021;-82
2021/12/09 05:01:24;;;;;;;12.53;4.37;;;;;;;0.40;85.48;100203.72;5052106;28;20028;-83
2021/12/09 05:03:49;;;;;;;13.93;4.53;;;;;;;0.39;85.24;100205.41;5057029;28;20468;-83
2021/12/09 05:06:16;;;;;;;11.77;4.00;;;;;;;0.39;85.48;100205.41;5052418;28;20033;-83
2021/12/09 05:08:46;;;;;;;11.67;4.07;;;;;;;0.42;85.79;100207.13;5053856;28;20025;-83
2021/12/09 05:11:30;;;;;;;11.40;3.73;;;;;;;0.38;85.24;100203.69;5051238;28;20392;-83
2021/12/09 05:13:56;;;;;;;12.77;4.20;;;;;;;0.40;85.13;100208.81;5035935;28;20032;-83
2021/12/09 05:16:21;;;;;;;13.07;3.80;;;;;;;0.39;85.76;100204.56;5058891;28;20033;-82
2021/12/09 05:18:48;;;;;;;12.77;3.90;;;;;;;0.39;85.69;100202.00;5058817;28;20032;-83
2021/12/09 05:21:14;;;;;;;12.37;4.27;;;;;;;0.38;85.25;100208.81;5057236;28;20024;-83
2021/12/09 05:23:41;;;;;;;9.03;3.67;;;;;;;0.38;85.70;100213.91;5053629;28;20028;-83
2021/12/09 05:26:08;;;;;;;8.87;3.73;;;;;;;0.39;85.56;100213.06;5054482;28;20025;-83
2021/12/09 05:28:36;;;;;;;10.10;3.80;;;;;;;0.41;85.46;100205.41;5036530;28;20039;-83
2021/12/09 05:33:52;;;;;;;12.77;4.00;;;;;;;0.42;85.80;100213.09;5001331;28;20035;-82
2021/12/09 05:36:18;;;;;;;9.87;4.00;;;;;;;0.43;85.63;100209.69;5051403;28;20025;-83
2021/12/09 05:38:43;;;;;;;11.00;3.80;;;;;;;0.43;85.66;100209.69;5049887;28;20037;-82
2021/12/09 05:41:09;;;;;;;15.93;4.37;;;;;;;0.44;85.56;100213.09;5049252;28;20032;-82
2021/12/09 05:43:35;;;;;;;9.47;4.00;;;;;;;0.43;85.51;100214.81;5050076;28;20040;-82
2021/12/09 05:46:01;;;;;;;13.90;4.23;;;;;;;0.43;85.67;100209.69;5050493;28;20424;-83
2021/12/09 05:48:26;;;;;;;11.47;4.03;;;;;;;0.45;85.35;100217.38;5050660;28;20035;-83
2021/12/09 05:50:52;;;;;;;12.23;4.23;;;;;;;0.44;85.69;100208.84;5051273;28;20450;-83
2021/12/09 05:53:17;;;;;;;10.43;4.20;;;;;;;0.43;85.37;100225.03;5051758;28;20029;-83
2021/12/09 05:55:44;;;;;;;12.17;4.00;;;;;;;0.45;85.40;100230.16;5049254;28;20192;-83
2021/12/09 05:58:20;;;;;;;11.40;4.07;;;;;;;0.43;85.55;100236.97;5048738;28;20017;-83
2021/12/09 06:00:45;;;;;;;12.50;4.10;;;;;;;0.42;85.95;100253.19;5047958;28;20123;-83
2021/12/09 06:03:11;;;;;;;13.63;4.40;;;;;;;0.42;85.65;100254.03;5050140;28;20541;-83
2021/12/09 06:05:37;;;;;;;12.43;4.20;;;;;;;0.39;85.48;100254.00;5050107;28;20025;-83
2021/12/09 06:08:03;;;;;;;11.90;4.37;;;;;;;0.40;85.60;100253.16;5046682;28;20032;-83
2021/12/09 06:10:29;;;;;;;13.47;4.10;;;;;;;0.40;85.38;100250.63;5049547;28;20025;-83
2021/12/09 06:12:54;;;;;;;14.73;4.70;;;;;;;0.39;85.45;100253.16;5048044;28;21193;-83
2021/12/09 06:15:20;;;;;;;12.43;4.30;;;;;;;0.36;85.62;100248.88;5047683;28;20031;-83
2021/12/09 06:17:45;;;;;;;12.67;4.50;;;;;;;0.37;85.76;100245.47;5048101;28;20033;-83
2021/12/09 06:20:11;;;;;;;12.60;4.43;;;;;;;0.38;86.00;100244.63;5034339;28;20472;-82
2021/12/09 06:22:36;;;;;;;10.47;4.80;;;;;;;0.37;85.65;100239.50;5049338;28;20033;-83
2021/12/09 06:25:03;;;;;;;14.87;4.63;;;;;;;0.38;85.85;100236.09;5050504;28;20499;-83
2021/12/09 06:27:28;;;;;;;16.73;4.60;;;;;;;0.37;85.58;100239.50;5052127;28;20111;-83
2021/12/09 06:29:53;;;;;;;16.33;4.80;;;;;;;0.36;85.75;100237.78;5048489;28;20104;-83
2021/12/09 06:32:19;;;;;;;12.20;4.57;;;;;;;0.37;85.83;100235.22;5049648;28;20056;-83
2021/12/09 06:34:44;;;;;;;10.67;4.30;;;;;;;0.37;85.54;100244.63;5049031;28;20029;-83
2021/12/09 06:37:09;;;;;;;11.47;4.73;;;;;;;0.34;85.58;100244.59;5050292;28;20028;-83
2021/12/09 06:39:35;;;;;;;11.33;5.00;;;;;;;0.35;86.07;100242.03;5050288;28;20048;-83
2021/12/09 06:42:00;;;;;;;13.03;4.70;;;;;;;0.36;86.23;100248.88;5047133;28;20043;-83
2021/12/09 06:44:26;;;;;;;14.10;5.60;;;;;;;0.36;86.08;100248.88;5050907;28;20044;-83
2021/12/09 06:46:51;;;;;;;14.87;5.43;;;;;;;0.35;86.17;100246.31;5050321;28;20027;-82
2021/12/09 06:49:17;;;;;;;11.80;4.80;;;;;;;0.35;86.13;100256.56;5053049;28;20024;-83
2021/12/09 06:51:42;;;;;;;12.23;4.87;;;;;;;0.35;85.79;100252.28;5056815;28;20036;-83
2021/12/09 06:54:07;;;;;;;18.70;5.60;;;;;;;0.36;86.06;100250.59;5050853;28;20031;-83
2021/12/09 06:56:33;;;;;;;10.03;4.90;;;;;;;0.35;86.15;100251.44;5050211;28;20209;-83
2021/12/09 06:58:59;;;;;;;14.20;4.97;;;;;;;0.34;86.03;100258.28;5032704;28;20491;-83
2021/12/09 07:01:25;;;;;;;13.13;4.70;;;;;;;0.35;86.28;100259.09;5050684;28;20032;-83
2021/12/09 07:03:51;;;;;;;12.23;5.10;;;;;;;0.35;86.40;100261.66;5050011;28;20379;-83
2021/12/09 07:06:17;;;;;;;12.53;5.03;;;;;;;0.35;86.24;100262.50;5051226;28;20421;-83
2021/12/09 07:08:46;;;;;;;14.67;5.10;;;;;;;0.34;86.23;100267.63;5049948;28;20475;-83
2021/12/09 07:11:13;;;;;;;11.87;4.80;;;;;;;0.30;86.23;100259.09;5032237;28;20185;-84
2021/12/09 07:13:39;;;;;;;13.97;4.83;;;;;;;0.29;86.45;100271.00;5050691;28;20029;-82
2021/12/09 07:16:05;;;;;;;12.43;4.83;;;;;;;0.29;86.29;100270.16;5050967;28;20032;-84
2021/12/09 07:18:30;;;;;;;13.37;5.00;;;;;;;0.28;86.06;100276.13;5050504;28;20037;-83
2021/12/09 07:20:56;;;;;;;21.60;5.33;;;;;;;0.27;86.32;100269.28;5050774;28;20053;-83
2021/12/09 07:23:22;;;;;;;11.63;4.80;;;;;;;0.24;86.17;100272.69;5050144;28;20487;-83
2021/12/09 07:25:47;;;;;;;14.60;4.90;;;;;;;0.25;86.43;100270.97;5051461;28;20025;-83
2021/12/09 07:28:13;;;;;;;13.97;5.10;;;;;;;0.24;86.14;100276.94;5051256;28;20032;-83
2021/12/09 07:30:39;;;;;;;11.07;5.00;;;;;;;0.22;86.35;100273.50;5051476;28;20033;-83
2021/12/09 07:33:04;;;;;;;12.17;4.93;;;;;;;0.24;86.01;100270.13;5051347;28;20440;-83
2021/12/09 07:35:30;;;;;;;12.40;4.43;;;;;;;0.24;86.15;100274.38;5050380;28;20094;-83
2021/12/09 07:37:57;;;;;;;12.30;4.77;;;;;;;0.23;86.70;100273.53;5051662;28;20032;-83
2021/12/09 07:40:23;;;;;;;12.60;4.90;;;;;;;0.26;86.51;100282.94;5051417;28;20017;-83
2021/12/09 07:42:49;;;;;;;13.80;5.10;;;;;;;0.27;86.40;100287.19;5049432;28;20098;-83
2021/12/09 07:45:17;;;;;;;13.50;5.67;;;;;;;0.25;86.64;100283.78;5050411;28;20120;-83
2021/12/09 07:47:43;;;;;;;15.57;5.60;;;;;;;0.26;86.82;100288.03;5051430;28;20033;-83
2021/12/09 07:50:13;;;;;;;16.13;6.47;;;;;;;0.26;86.42;100282.94;5049014;28;20147;-82
2021/12/09 07:52:40;;;;;;;13.00;6.40;;;;;;;0.26;86.68;100288.88;5061041;28;20032;-83
2021/12/09 07:55:05;;;;;;;16.63;5.60;;;;;;;0.27;86.69;100282.09;5053176;28;20025;-83
2021/12/09 07:57:33;;;;;;;10.67;5.60;;;;;;;0.29;86.48;100278.69;5056234;28;20079;-83
2021/12/09 07:59:58;;;;;;;17.70;6.00;;;;;;;0.30;86.62;100284.66;5050489;28;20029;-83
2021/12/09 08:02:23;;;;;;;16.70;5.87;;;;;;;0.30;86.49;100280.41;5051014;28;20028;-82
2021/12/09 08:04:49;;;;;;;17.87;6.00;;;;;;;0.33;86.58;100279.59;5051335;28;20108;-83
2021/12/09 08:07:14;;;;;;;14.93;5.83;;;;;;;0.37;86.89;100276.19;5053877;28;20029;-83
2021/12/09 08:09:39;;;;;;;16.80;6.53;;;;;;;0.35;86.61;100270.19;5060129;28;20025;-83
2021/12/09 08:12:05;;;;;;;15.87;6.10;;;;;;;0.37;86.76;100276.19;5059683;28;20021;-83
2021/12/09 08:14:31;;;;;;;15.17;6.10;;;;;;;0.39;86.26;100278.75;5053789;28;20020;-83
2021/12/09 08:17:10;;;;;;;12.17;5.90;;;;;;;0.41;86.60;100279.63;5061079;28;20463;-83
2021/12/09 08:19:35;;;;;;;15.47;5.27;;;;;;;0.43;86.49;100283.03;5050858;28;20025;-83
2021/12/09 08:22:00;;;;;;;17.57;5.63;;;;;;;0.44;86.46;100288.19;5067435;28;20077;-83
2021/12/09 08:24:26;;;;;;;15.10;5.67;;;;;;;0.46;86.52;100280.50;5074450;28;20024;-82
2021/12/09 08:26:52;;;;;;;12.70;5.30;;;;;;;0.47;86.35;100287.34;5060439;28;20029;-82
2021/12/09 08:29:17;;;;;;;15.07;5.60;;;;;;;0.49;86.71;100284.81;5070680;28;20039;-82
2021/12/09 08:31:45;;;;;;;14.17;5.57;;;;;;;0.52;86.60;100288.22;5062037;28;20024;-82
2021/12/09 08:34:10;;;;;;;17.97;5.93;;;;;;;0.55;86.24;100300.19;5061730;28;20025;-82
2021/12/09 08:36:36;;;;;;;16.27;6.50;;;;;;;0.61;86.69;100302.78;5065237;28;20086;-82
2021/12/09 08:39:01;;;;;;;16.50;5.73;;;;;;;0.67;86.38;100294.28;5057906;28;20370;-82
2021/12/09 08:41:26;;;;;;;12.97;5.40;;;;;;;0.73;86.61;100292.63;5054692;28;20428;-82
2021/12/09 08:43:52;;;;;;;15.97;5.87;;;;;;;0.81;86.34;100291.81;5055505;28;20040;-83
2021/12/09 08:46:17;;;;;;;16.57;6.03;;;;;;;0.86;86.33;100290.13;5054105;28;20021;-83
2021/12/09 08:48:44;;;;;;;12.73;5.60;;;;;;;0.91;86.06;100293.56;5054004;28;20029;-82
2021/12/09 08:51:09;;;;;;;14.30;5.73;;;;;;;0.96;86.13;100297.00;5055038;28;20029;-82
2021/12/09 08:53:35;;;;;;;15.57;6.27;;;;;;;1.00;86.07;100295.31;5054771;28;20083;-83
2021/12/09 08:56:01;;;;;;;17.30;6.17;;;;;;;1.06;85.69;100292.78;5052476;28;20075;-83
2021/12/09 08:58:28;;;;;;;13.57;6.07;;;;;;;1.09;85.69;100291.94;5053042;28;20411;-83
2021/12/09 09:00:57;;;;;;;14.10;6.00;;;;;;;1.12;85.58;100299.63;5056431;28;20040;-82
2021/12/09 09:03:23;;;;;;;14.70;6.13;;;;;;;1.15;85.63;100297.94;5055004;28;20071;-83
2021/12/09 09:05:49;;;;;;;13.93;6.07;;;;;;;1.20;85.61;100297.94;5057318;28;20111;-82
2021/12/09 09:08:14;;;;;;;16.03;6.60;;;;;;;1.23;85.63;100305.66;5058830;28;20115;-82
2021/12/09 09:10:42;;;;;;;14.90;6.10;;;;;;;1.27;85.57;100302.25;5056698;28;20017;-83
2021/12/09 09:13:08;;;;;;;14.77;6.40;;;;;;;1.31;85.64;100309.13;5056192;28;20016;-82
2021/12/09 09:15:36;;;;;;;13.07;6.30;;;;;;;1.35;85.51;100305.72;5052513;28;20050;-82
2021/12/09 09:18:02;;;;;;;15.47;6.20;;;;;;;1.38;85.46;100304.88;5039188;28;20016;-83
2021/12/09 09:20:30;;;;;;;13.13;6.33;;;;;;;1.41;85.34;100302.31;5056725;28;20040;-82
2021/12/09 09:22:56;;;;;;;17.63;6.77;;;;;;;1.43;85.35;100313.44;5053632;28;20025;-82
2021/12/09 09:25:29;;;;;;;14.40;6.47;;;;;;;1.45;85.48;100321.97;5052081;28;20101;-82
2021/12/09 09:27:58;;;;;;;12.80;5.97;;;;;;;1.50;85.43;100319.44;5050594;28;20021;-82
2021/12/09 09:30:27;;;;;;;12.63;6.17;;;;;;;1.51;85.46;100310.91;5051612;28;20029;-82
2021/12/09 09:32:53;;;;;;;13.27;6.17;;;;;;;1.54;85.33;100316.00;5051642;28;20029;-82
2021/12/09 09:35:19;;;;;;;14.77;6.80;;;;;;;1.57;85.27;100321.16;5052198;28;21038;-82
2021/12/09 09:37:47;;;;;;;15.70;6.47;;;;;;;1.59;85.19;100319.44;5051901;28;20384;-83
2021/12/09 09:40:16;;;;;;;18.83;6.67;;;;;;;1.62;85.36;100323.75;5051531;28;20025;-82
2021/12/09 09:45:12;;;;;;;16.03;6.93;;;;;;;1.70;85.07;100327.16;5052876;28;20051;-82
2021/12/09 09:47:38;;;;;;;14.63;6.50;;;;;;;1.74;85.27;100322.91;5052388;28;20029;-82
2021/12/09 09:50:06;;;;;;;17.23;7.17;;;;;;;1.75;85.46;100327.19;5052725;28;20526;-82
2021/12/09 09:52:32;;;;;;;14.67;6.77;;;;;;;1.78;85.17;100327.19;5052036;28;20044;-82
2021/12/09 09:55:00;;;;;;;14.93;7.40;;;;;;;1.80;85.07;100328.06;5051874;28;20476;-82
2021/12/09 09:57:26;;;;;;;15.13;7.20;;;;;;;1.83;85.19;100322.94;5052553;28;20021;-82
2021/12/09 09:59:52;;;;;;;13.27;6.90;;;;;;;1.86;85.23;100322.06;5050574;28;20106;-82
2021/12/09 10:02:17;;;;;;;14.57;6.87;;;;;;;1.89;85.15;100322.91;5052000;28;20399;-82
2021/12/09 10:04:59;;;;;;;13.17;6.80;;;;;;;1.92;85.15;100320.38;5051685;28;20028;-83
2021/12/09 10:07:25;;;;;;;16.10;7.32;;;;;;;1.95;85.19;100311.84;5033679;28;20079;-82
2021/12/09 10:09:51;;;;;;;18.17;7.70;;;;;;;1.97;84.96;100321.25;5051153;28;20387;-82
2021/12/09 10:12:18;;;;;;;18.17;8.00;;;;;;;2.02;84.57;100315.25;5051652;28;20074;-82
2021/12/09 10:14:52;;;;;;;15.60;7.37;;;;;;;2.05;84.74;100305.00;5051528;28;20473;-83
2021/12/09 10:17:22;;;;;;;18.23;7.70;;;;;;;2.08;84.58;100295.59;5051291;28;20029;-83
2021/12/09 10:19:55;;;;;;;18.47;7.77;;;;;;;2.11;84.43;100303.31;5051622;28;20071;-83
2021/12/09 10:22:32;;;;;;;13.40;7.50;;;;;;;2.12;84.28;100299.88;5053145;28;20025;-83
2021/12/09 10:24:59;;;;;;;17.17;7.87;;;;;;;2.16;84.62;100310.13;5051292;28;20155;-83
2021/12/09 10:27:33;;;;;;;15.10;7.73;;;;;;;2.19;84.53;100308.44;5052071;28;20137;-83
2021/12/09 10:30:15;;;;;;;17.63;8.10;;;;;;;2.26;84.56;100312.69;5051969;28;20017;-83
2021/12/09 10:32:42;;;;;;;14.43;7.97;;;;;;;2.30;84.34;100307.56;5052674;28;20017;-83
2021/12/09 10:35:20;;;;;;;12.63;8.00;;;;;;;2.34;84.26;100310.13;5049770;28;20200;-83
2021/12/09 10:37:49;;;;;;;17.77;7.90;;;;;;;2.36;84.51;100308.41;5054231;28;20025;-83
2021/12/09 10:40:25;;;;;;;14.50;7.87;;;;;;;2.39;84.23;100297.31;5050711;28;20025;-83
2021/12/09 10:42:54;;;;;;;14.60;7.10;;;;;;;2.43;84.44;100301.56;5031790;28;20033;-83
2021/12/09 10:45:37;;;;;;;19.33;8.33;;;;;;;2.45;84.35;100287.00;5050876;28;20057;-83
2021/12/09 10:53:36;;;;;;;14.73;7.40;;;;;;;2.58;83.68;100298.97;5050071;28;20037;-83
2021/12/09 10:56:10;;;;;;;15.90;7.63;;;;;;;2.61;83.74;100298.13;5055584;28;20028;-83
2021/12/09 10:58:41;;;;;;;15.30;7.87;;;;;;;2.61;83.37;100297.25;5065867;28;20118;-83
2021/12/09 11:01:10;;;;;;;15.00;8.00;;;;;;;2.63;84.10;100296.41;5053285;28;20487;-83
2021/12/09 11:03:43;;;;;;;15.17;7.40;;;;;;;2.62;83.98;100298.97;5071038;28;20024;-82
2021/12/09 11:06:22;;;;;;;16.10;7.77;;;;;;;2.65;83.80;100294.66;5065341;28;20115;-83
2021/12/09 11:08:53;;;;;;;13.53;7.40;;;;;;;2.62;83.79;100291.25;5058181;28;20025;-83
2021/12/09 11:11:25;;;;;;;12.38;7.30;;;;;;;2.63;84.26;100292.97;5052822;28;20031;-83
2021/12/09 11:13:57;;;;;;;15.03;7.00;;;;;;;2.62;83.79;100291.25;5070878;28;20131;-83
2021/12/09 11:16:38;;;;;;;12.32;7.35;;;;;;;2.64;83.82;100297.25;5067003;28;20104;-82
2021/12/09 11:19:05;;;;;;;14.48;7.40;;;;;;;2.64;84.02;100297.25;5042792;28;20028;-83
2021/12/09 11:21:35;;;;;;;11.73;7.57;;;;;;;2.63;83.72;100301.56;5047751;28;20036;-83
2021/12/09 11:24:05;;;;;;;14.47;7.43;;;;;;;2.63;83.95;100295.53;5060848;28;20067;-83
2021/12/09 11:27:00;;;;;;;16.47;7.93;;;;;;;2.67;84.45;100292.97;5053383;28;20048;-83
2021/12/09 11:29:37;;;;;;;12.90;7.90;;;;;;;2.67;83.67;100292.13;5059633;28;20048;-83
2021/12/09 11:34:44;;;;;;;13.07;7.70;;;;;;;2.71;83.73;100279.25;5048305;28;20036;-83
2021/12/09 11:37:36;;;;;;;16.10;8.60;;;;;;;2.73;84.09;100269.84;5051795;28;20021;-83